Bookmark and Share
Track history (hours):
 

Algoma Mariner

Last reported at 2014-Apr-19 19:15 UTC. Time now 2014-Apr-23 12:35 UTC.
Position N 46°34' W 072°08'.

Length 225 m; draft 5.7 m.

Type: Cargo ship. MMSI: 316014050.

NotesDate/timePositionNaut miles runAvg speedWind from/ knotsBaromVisibWave heightAir tempDewpointWater temp
2014-Apr-19 19:15N 46°34' W 072°08'1013.6
2014-Apr-19 18:33N 46°26' W 072°16'1312.7
2014-Apr-19 17:33N 46°20' W 072°32'1110.9
2014-Apr-19 16:33N 46°14' W 072°46'3310.9
2014-Apr-19 13:33N 45°50' W 073°17'0 0.0
2014-Apr-19 12:33N 45°50' W 073°17'0 0.0
2014-Apr-19 11:33N 45°50' W 073°17'0 0.0
2014-Apr-19 10:33N 45°50' W 073°17'0 0.0
2014-Apr-19 09:33N 45°50' W 073°17'0 0.0
2014-Apr-19 08:33N 45°50' W 073°17'0 0.0
2014-Apr-19 07:34N 45°50' W 073°17'0 0.0
2014-Apr-19 06:34N 45°50' W 073°17'0 0.0
2014-Apr-19 05:34N 45°50' W 073°17'0 0.0
2014-Apr-19 04:34N 45°50' W 073°17'0 0.0
2014-Apr-19 03:33N 45°50' W 073°17'0 0.0
2014-Apr-19 02:31N 45°50' W 073°17'0 0.0
2014-Apr-19 01:33N 45°50' W 073°17'1 0.5
2014-Apr-19 00:29N 45°50' W 073°17'32 1.1
2014-Apr-17 18:28N 46°14' W 072°46'8 8.4
2014-Apr-17 17:34N 46°17' W 072°36'7 6.7
2014-Apr-17 16:34N 46°22' W 072°29'8 7.6
2014-Apr-17 15:34N 46°26' W 072°20'7 7.4
2014-Apr-17 14:34N 46°31' W 072°12'7 7.0
2014-Apr-17 13:33N 46°34' W 072°03'  
2014-Apr-13 22:32N 46°12' W 072°53'2612.3
2014-Apr-13 20:23N 45°51' W 073°16'1 1.5
2014-Apr-13 19:33N 45°50' W 073°17'0 0.0
2014-Apr-13 18:33N 45°50' W 073°17'0 0.0
2014-Apr-13 17:33N 45°50' W 073°17'0 0.0
2014-Apr-13 16:33N 45°50' W 073°17'0 0.0
2014-Apr-13 15:33N 45°50' W 073°17'0 0.0
2014-Apr-13 14:33N 45°50' W 073°17'0 0.0
2014-Apr-13 13:33N 45°50' W 073°17'0 0.0
2014-Apr-13 12:33N 45°50' W 073°17'0 0.0
2014-Apr-13 11:33N 45°50' W 073°17'0 0.0
2014-Apr-13 10:33N 45°50' W 073°17'0 0.0
2014-Apr-13 09:33N 45°50' W 073°17'0 0.0
2014-Apr-13 08:33N 45°50' W 073°17'0 0.1
2014-Apr-13 07:33N 45°50' W 073°17'5 4.6
2014-Apr-13 06:33N 45°54' W 073°14'34 8.4
2014-Apr-13 02:33N 46°17' W 072°37'6 6.3
2014-Apr-13 01:33N 46°21' W 072°31'8 8.5
2014-Apr-13 00:33N 46°26' W 072°21'8 7.9
2014-Apr-12 23:33N 46°31' W 072°13'8 7.6
2014-Apr-12 22:33N 46°35' W 072°02'  

Dump ship's entire track history

sailing weather and tide predictions

Algoma Mariner — CFN5517 — position and weather